createdAt,value
2022-11-23T00:00:10.515Z,26.72
2022-11-23T00:01:10.508Z,26.77
2022-11-23T00:02:10.559Z,26.80
2022-11-23T00:03:10.507Z,26.69
2022-11-23T00:04:10.518Z,26.73
2022-11-23T00:05:10.506Z,26.77
2022-11-23T00:06:10.514Z,26.72
2022-11-23T00:07:10.584Z,26.76
2022-11-23T00:08:10.513Z,26.76
2022-11-23T00:09:10.632Z,26.75
2022-11-23T00:10:10.514Z,26.72
2022-11-23T00:11:10.505Z,26.72
2022-11-23T00:12:10.515Z,26.75
2022-11-23T00:13:10.505Z,26.73
2022-11-23T00:14:10.514Z,26.77
2022-11-23T00:15:10.505Z,26.77
2022-11-23T00:16:10.512Z,26.76
2022-11-23T00:17:10.505Z,26.81
2022-11-23T00:18:10.515Z,26.67
2022-11-23T00:19:10.505Z,26.70
2022-11-23T00:20:10.512Z,26.76
2022-11-23T00:21:10.504Z,26.73
2022-11-23T00:22:10.513Z,26.75
2022-11-23T00:23:10.503Z,26.81
2022-11-23T00:24:10.510Z,26.67
2022-11-23T00:25:10.635Z,26.69
2022-11-23T00:26:10.513Z,26.67
2022-11-23T00:27:10.501Z,26.81
2022-11-23T00:28:10.510Z,26.66
2022-11-23T00:29:10.505Z,26.65
2022-11-23T00:30:10.509Z,26.69
2022-11-23T00:31:10.502Z,26.73
2022-11-23T00:32:10.508Z,26.65
2022-11-23T00:33:10.504Z,26.75
2022-11-23T00:34:10.509Z,26.75
2022-11-23T00:35:10.505Z,26.67
2022-11-23T00:36:10.507Z,26.62
2022-11-23T00:37:10.500Z,26.75
2022-11-23T00:38:10.507Z,26.75
2022-11-23T00:39:10.498Z,26.76
2022-11-23T00:40:10.507Z,26.73
2022-11-23T00:41:10.522Z,26.73
2022-11-23T00:42:10.506Z,26.67
2022-11-23T00:43:10.497Z,26.73
2022-11-23T00:44:10.506Z,26.77
2022-11-23T00:45:10.499Z,26.77
2022-11-23T00:46:10.507Z,26.76
2022-11-23T00:47:10.516Z,26.76
2022-11-23T00:48:10.506Z,26.73
2022-11-23T00:49:10.498Z,26.70
2022-11-23T00:50:10.505Z,26.80
2022-11-23T00:51:10.497Z,26.72
2022-11-23T00:52:10.503Z,26.60
2022-11-23T00:53:10.496Z,26.70
2022-11-23T00:54:10.507Z,26.77
2022-11-23T00:55:10.503Z,26.72
2022-11-23T00:56:10.505Z,26.75
2022-11-23T00:57:10.516Z,26.76
2022-11-23T00:58:10.503Z,26.65
2022-11-23T00:59:10.494Z,26.75
2022-11-23T01:00:10.505Z,26.70
2022-11-23T01:01:10.638Z,26.72
2022-11-23T01:02:10.501Z,26.77
2022-11-23T01:03:10.493Z,26.80
2022-11-23T01:04:10.503Z,26.73
2022-11-23T01:05:10.496Z,26.70
2022-11-23T01:06:10.502Z,26.75
2022-11-23T01:07:10.569Z,26.72
2022-11-23T01:08:10.500Z,26.67
2022-11-23T01:09:10.492Z,26.75
2022-11-23T01:10:10.502Z,26.72
2022-11-23T01:11:10.491Z,26.76
2022-11-23T01:12:10.499Z,26.75
2022-11-23T01:13:10.518Z,26.67
2022-11-23T01:14:10.648Z,26.66
2022-11-23T01:15:10.496Z,26.67
2022-11-23T01:16:10.501Z,26.77
2022-11-23T01:17:10.490Z,26.75
2022-11-23T01:18:10.499Z,26.75
2022-11-23T01:19:10.494Z,26.75
2022-11-23T01:20:10.497Z,26.67
2022-11-23T01:21:10.491Z,26.76
2022-11-23T01:22:10.497Z,26.60
2022-11-23T01:23:10.488Z,26.72
2022-11-23T01:24:10.496Z,26.73
2022-11-23T01:25:10.491Z,26.80
2022-11-23T01:26:10.497Z,26.70
2022-11-23T01:27:10.488Z,26.73
2022-11-23T01:28:10.497Z,26.73
2022-11-23T01:29:10.509Z,26.70
2022-11-23T01:30:10.495Z,26.75
2022-11-23T01:31:10.488Z,26.75
2022-11-23T01:32:10.497Z,26.75
2022-11-23T01:33:10.488Z,26.75
2022-11-23T01:34:10.493Z,26.70
2022-11-23T01:35:10.486Z,26.67
2022-11-23T01:36:10.494Z,26.72
2022-11-23T01:37:10.488Z,26.62
2022-11-23T01:38:15.117Z,26.73
2022-11-23T01:39:10.485Z,26.73
2022-11-23T01:40:10.492Z,26.73
2022-11-23T01:41:10.486Z,26.70
2022-11-23T01:42:15.152Z,26.73
2022-11-23T01:43:10.483Z,26.60
2022-11-23T01:44:10.492Z,26.73
2022-11-23T01:45:10.507Z,26.76
2022-11-23T01:46:10.490Z,26.76
2022-11-23T01:47:10.483Z,26.65
2022-11-23T01:48:10.491Z,26.63
2022-11-23T01:49:10.483Z,26.69
2022-11-23T01:50:10.490Z,26.69
2022-11-23T01:51:10.482Z,26.75
2022-11-23T01:52:10.489Z,26.69
2022-11-23T01:53:10.481Z,26.72
2022-11-23T01:54:10.494Z,26.76
2022-11-23T01:55:10.481Z,26.77
2022-11-23T01:56:10.497Z,26.76
2022-11-23T01:57:10.482Z,26.62
2022-11-23T01:58:10.497Z,26.73
2022-11-23T01:59:10.481Z,26.73
2022-11-23T02:00:10.487Z,26.70
2022-11-23T02:01:10.564Z,26.65
2022-11-23T02:02:10.488Z,26.72
2022-11-23T02:03:10.480Z,26.75
2022-11-23T02:04:10.488Z,26.77
2022-11-23T02:05:10.480Z,26.75
2022-11-23T02:06:10.504Z,26.75
2022-11-23T02:07:10.569Z,26.66
2022-11-23T02:08:10.490Z,26.70
2022-11-23T02:09:10.483Z,26.76
2022-11-23T02:10:10.488Z,26.77
2022-11-23T02:11:10.480Z,26.75
2022-11-23T02:12:10.486Z,26.66
2022-11-23T02:13:10.478Z,26.75
2022-11-23T02:14:10.488Z,26.63
2022-11-23T02:15:10.484Z,26.70
2022-11-23T02:16:10.484Z,26.75
2022-11-23T02:17:10.501Z,26.77
2022-11-23T02:18:10.487Z,26.58
2022-11-23T02:19:10.477Z,26.73
2022-11-23T02:20:10.489Z,26.75
2022-11-23T02:21:10.476Z,26.75
2022-11-23T02:22:10.483Z,26.72
2022-11-23T02:23:10.477Z,26.75
2022-11-23T02:24:10.484Z,26.75
2022-11-23T02:25:10.474Z,26.65
2022-11-23T02:26:10.481Z,26.62
2022-11-23T02:27:10.474Z,26.73
2022-11-23T02:28:10.484Z,26.67
2022-11-23T02:29:10.477Z,26.72
2022-11-23T02:30:10.483Z,26.72
2022-11-23T02:31:10.473Z,26.72
2022-11-23T02:32:10.486Z,26.69
2022-11-23T02:33:10.496Z,26.73
2022-11-23T02:34:10.481Z,26.72
2022-11-23T02:35:10.473Z,26.76
2022-11-23T02:36:10.481Z,26.72
2022-11-23T02:37:10.473Z,26.76
2022-11-23T02:38:10.479Z,26.73
2022-11-23T02:39:10.472Z,26.73
2022-11-23T02:40:10.480Z,26.75
2022-11-23T02:41:10.473Z,26.63
2022-11-23T02:42:10.479Z,26.72
2022-11-23T02:43:10.470Z,26.57
2022-11-23T02:44:10.477Z,26.70
2022-11-23T02:45:10.473Z,26.75
2022-11-23T02:46:10.478Z,26.65
2022-11-23T02:47:10.512Z,26.67
2022-11-23T02:48:10.476Z,26.75
2022-11-23T02:49:10.491Z,26.65
2022-11-23T02:50:10.478Z,26.65
2022-11-23T02:51:10.470Z,26.70
2022-11-23T02:52:10.475Z,26.62
2022-11-23T02:53:10.468Z,26.63
2022-11-23T02:54:10.476Z,26.63
2022-11-23T02:55:10.467Z,26.69
2022-11-23T02:56:10.477Z,26.69
2022-11-23T02:57:10.467Z,26.72
2022-11-23T02:58:10.476Z,26.66
2022-11-23T02:59:10.466Z,26.72
2022-11-23T03:00:10.474Z,26.65
2022-11-23T03:01:10.506Z,26.72
2022-11-23T03:02:10.473Z,26.72
2022-11-23T03:03:10.466Z,26.67
2022-11-23T03:04:10.474Z,26.72
2022-11-23T03:05:10.487Z,26.69
2022-11-23T03:06:10.475Z,26.72
2022-11-23T03:07:10.513Z,26.72
2022-11-23T03:08:10.471Z,26.65
2022-11-23T03:09:10.464Z,26.70
2022-11-23T03:10:10.477Z,26.72
2022-11-23T03:11:10.463Z,26.75
2022-11-23T03:12:10.471Z,26.69
2022-11-23T03:13:10.463Z,26.69
2022-11-23T03:14:10.470Z,26.66
2022-11-23T03:15:10.463Z,26.65
2022-11-23T03:16:10.470Z,26.60
2022-11-23T03:17:10.463Z,26.70
2022-11-23T03:18:10.470Z,26.69
2022-11-23T03:19:10.461Z,26.63
2022-11-23T03:20:10.471Z,26.69
2022-11-23T03:21:10.484Z,26.60
2022-11-23T03:22:10.470Z,26.63
2022-11-23T03:23:10.463Z,26.69
2022-11-23T03:24:10.461Z,26.66
2022-11-23T03:25:10.468Z,26.66
2022-11-23T03:26:13.097Z,26.72
2022-11-23T03:27:10.468Z,26.69
2022-11-23T03:28:10.461Z,26.72
2022-11-23T03:29:10.469Z,26.63
2022-11-23T03:30:10.459Z,26.67
2022-11-23T03:31:10.465Z,26.65
2022-11-23T03:32:10.460Z,26.62
2022-11-23T03:33:10.467Z,26.65
2022-11-23T03:34:10.458Z,26.63
2022-11-23T03:35:10.465Z,26.63
2022-11-23T03:36:10.457Z,26.62
2022-11-23T03:37:10.486Z,26.66
2022-11-23T03:38:10.459Z,26.62
2022-11-23T03:39:10.464Z,26.66
2022-11-23T03:40:10.457Z,26.63
2022-11-23T03:41:10.464Z,26.63
2022-11-23T03:42:10.458Z,26.58
2022-11-23T03:43:10.464Z,26.63
2022-11-23T03:44:10.456Z,26.67
2022-11-23T03:45:10.463Z,26.63
2022-11-23T03:46:10.457Z,26.69
2022-11-23T03:47:10.462Z,26.63
2022-11-23T03:48:10.454Z,26.66
2022-11-23T03:49:10.463Z,26.63
2022-11-23T03:50:10.456Z,26.66
2022-11-23T03:51:10.462Z,26.67
2022-11-23T03:52:10.454Z,26.62
2022-11-23T03:53:10.482Z,26.69
2022-11-23T03:54:10.456Z,26.67
2022-11-23T03:55:10.460Z,26.63
2022-11-23T03:56:10.453Z,26.65
2022-11-23T03:57:10.467Z,26.69
2022-11-23T03:58:10.454Z,26.65
2022-11-23T03:59:10.462Z,26.73
2022-11-23T04:00:10.451Z,26.67
2022-11-23T04:01:10.555Z,26.67
2022-11-23T04:02:10.452Z,26.65
2022-11-23T04:03:10.459Z,26.69
2022-11-23T04:04:10.452Z,26.70
2022-11-23T04:05:10.458Z,26.63
2022-11-23T04:06:10.451Z,26.62
2022-11-23T04:07:10.499Z,26.65
2022-11-23T04:08:10.449Z,26.65
2022-11-23T04:09:10.480Z,26.69
2022-11-23T04:10:10.449Z,26.62
2022-11-23T04:11:10.455Z,26.58
2022-11-23T04:12:10.448Z,26.63
2022-11-23T04:13:10.456Z,26.63
2022-11-23T04:14:10.448Z,26.65
2022-11-23T04:15:10.456Z,26.63
2022-11-23T04:16:10.447Z,26.69
2022-11-23T04:17:10.455Z,26.67
2022-11-23T04:18:10.450Z,26.62
2022-11-23T04:19:10.453Z,26.65
2022-11-23T04:20:10.449Z,26.67
2022-11-23T04:21:10.455Z,26.60
2022-11-23T04:22:10.446Z,26.63
2022-11-23T04:23:13.265Z,26.63
2022-11-23T04:24:10.446Z,26.69
2022-11-23T04:25:10.474Z,26.67
2022-11-23T04:26:10.448Z,26.67
2022-11-23T04:27:10.453Z,26.65
2022-11-23T04:28:10.444Z,26.62
2022-11-23T04:29:10.452Z,26.65
2022-11-23T04:30:10.446Z,26.66
2022-11-23T04:31:10.453Z,26.58
2022-11-23T04:32:10.443Z,26.63
2022-11-23T04:33:10.452Z,26.66
2022-11-23T04:34:10.444Z,26.65
2022-11-23T04:35:10.450Z,26.65
2022-11-23T04:36:10.442Z,26.65
2022-11-23T04:37:13.498Z,26.60
2022-11-23T04:38:10.442Z,26.63
2022-11-23T04:39:10.449Z,26.67
2022-11-23T04:40:10.441Z,26.69
2022-11-23T04:41:10.468Z,26.62
2022-11-23T04:42:10.441Z,26.62
2022-11-23T04:43:10.447Z,26.65
2022-11-23T04:44:10.440Z,26.65
2022-11-23T04:45:10.448Z,26.62
2022-11-23T04:46:10.439Z,26.60
2022-11-23T04:47:10.446Z,26.62
2022-11-23T04:48:10.439Z,26.62
2022-11-23T04:49:10.446Z,26.62
2022-11-23T04:50:10.441Z,26.63
2022-11-23T04:51:10.448Z,26.63
2022-11-23T04:52:10.438Z,26.57
2022-11-23T04:53:10.444Z,26.63
2022-11-23T04:54:10.437Z,26.62
2022-11-23T04:55:10.444Z,26.65
2022-11-23T04:56:10.436Z,26.65
2022-11-23T04:57:10.468Z,26.60
2022-11-23T04:58:10.436Z,26.67
2022-11-23T04:59:10.443Z,26.67
2022-11-23T05:00:10.438Z,26.66
2022-11-23T05:01:10.533Z,26.65
2022-11-23T05:02:10.434Z,26.66
2022-11-23T05:03:10.441Z,26.66
2022-11-23T05:04:16.295Z,26.63
2022-11-23T05:05:10.440Z,26.63
2022-11-23T05:06:10.435Z,26.66
2022-11-23T05:07:10.452Z,26.65
2022-11-23T05:08:10.433Z,26.60
2022-11-23T05:09:10.445Z,26.66
2022-11-23T05:10:10.433Z,26.65
2022-11-23T05:11:10.440Z,26.63
2022-11-23T05:12:10.433Z,26.67
2022-11-23T05:13:10.461Z,26.62
2022-11-23T05:14:10.433Z,26.66
2022-11-23T05:15:10.438Z,26.63
2022-11-23T05:16:10.432Z,26.65
2022-11-23T05:17:10.440Z,26.65
2022-11-23T05:18:10.452Z,26.58
2022-11-23T05:19:10.439Z,26.58
2022-11-23T05:20:10.432Z,26.65
2022-11-23T05:21:10.438Z,26.65
2022-11-23T05:22:10.430Z,26.58
2022-11-23T05:23:10.437Z,26.65
2022-11-23T05:24:10.428Z,26.65
2022-11-23T05:25:10.435Z,26.62
2022-11-23T05:26:10.430Z,26.62
2022-11-23T05:27:10.435Z,26.62
2022-11-23T05:28:30.540Z,26.67
2022-11-23T05:29:10.457Z,26.58
2022-11-23T05:30:10.427Z,26.63
2022-11-23T05:31:10.437Z,26.70
2022-11-23T05:32:10.427Z,26.65
2022-11-23T05:33:10.434Z,26.63
2022-11-23T05:34:10.426Z,26.62
2022-11-23T05:35:10.432Z,26.62
2022-11-23T05:36:10.427Z,26.57
2022-11-23T05:37:10.436Z,26.62
2022-11-23T05:38:10.427Z,26.58
2022-11-23T05:39:10.430Z,26.63
2022-11-23T05:40:10.424Z,26.57
2022-11-23T05:41:10.433Z,26.62
2022-11-23T05:42:10.425Z,26.63
2022-11-23T05:43:10.431Z,26.63
2022-11-23T05:44:10.423Z,26.63
2022-11-23T05:45:11.881Z,26.60
2022-11-23T05:46:10.424Z,26.62
2022-11-23T05:47:10.431Z,26.67
2022-11-23T05:48:10.426Z,26.62
2022-11-23T05:49:10.429Z,26.60
2022-11-23T05:50:10.427Z,26.63
2022-11-23T05:51:10.428Z,26.65
2022-11-23T05:52:10.426Z,26.62
2022-11-23T05:53:10.430Z,26.62
2022-11-23T05:54:10.422Z,26.63
2022-11-23T05:55:10.430Z,26.66
2022-11-23T05:56:10.422Z,26.63
2022-11-23T05:57:10.427Z,26.63
2022-11-23T05:58:10.424Z,26.62
2022-11-23T05:59:10.427Z,26.62
2022-11-23T06:00:10.419Z,26.65
2022-11-23T06:01:10.451Z,26.63
2022-11-23T06:02:10.420Z,26.63
2022-11-23T06:03:10.430Z,26.65
2022-11-23T06:04:10.509Z,26.69
2022-11-23T06:05:10.451Z,26.58
2022-11-23T06:06:10.418Z,26.66
2022-11-23T06:07:10.459Z,26.65
2022-11-23T06:08:10.416Z,26.75
2022-11-23T06:09:10.427Z,26.58
2022-11-23T06:10:10.417Z,26.63
2022-11-23T06:11:10.426Z,26.65
2022-11-23T06:12:10.419Z,26.67
2022-11-23T06:13:10.429Z,26.65
2022-11-23T06:14:14.253Z,26.65
2022-11-23T06:15:10.423Z,26.60
2022-11-23T06:16:10.414Z,26.63
2022-11-23T06:17:10.456Z,26.66
2022-11-23T06:18:10.415Z,26.60
2022-11-23T06:19:10.422Z,26.63
2022-11-23T06:20:10.415Z,26.63
2022-11-23T06:21:10.422Z,26.66
2022-11-23T06:22:10.415Z,26.66
2022-11-23T06:23:10.419Z,26.63
2022-11-23T06:24:10.414Z,26.62
2022-11-23T06:25:10.421Z,26.60
2022-11-23T06:26:10.412Z,26.69
2022-11-23T06:27:13.988Z,26.63
2022-11-23T06:28:10.412Z,26.58
2022-11-23T06:29:10.419Z,26.63
2022-11-23T06:30:10.412Z,26.60
2022-11-23T06:31:10.422Z,26.62
2022-11-23T06:32:10.410Z,26.65
2022-11-23T06:33:10.439Z,26.73
2022-11-23T06:34:10.411Z,26.62
2022-11-23T06:35:10.421Z,26.65
2022-11-23T06:36:10.412Z,26.62
2022-11-23T06:37:10.417Z,26.67
2022-11-23T06:38:10.410Z,26.62
2022-11-23T06:39:10.418Z,26.66
2022-11-23T06:40:10.410Z,26.60
2022-11-23T06:41:10.417Z,26.63
2022-11-23T06:42:37.365Z,26.63
2022-11-23T06:43:10.415Z,26.58
2022-11-23T06:44:10.410Z,26.65
2022-11-23T06:45:10.416Z,26.65
2022-11-23T06:46:10.407Z,26.62
2022-11-23T06:47:15.360Z,26.63
2022-11-23T06:48:10.407Z,26.65
2022-11-23T06:49:10.437Z,26.66
2022-11-23T06:50:10.407Z,26.62
2022-11-23T06:51:10.415Z,26.69
2022-11-23T06:52:10.408Z,26.67
2022-11-23T06:53:10.415Z,26.76
2022-11-23T06:54:10.409Z,26.63
2022-11-23T06:55:10.412Z,26.65
2022-11-23T06:56:10.411Z,26.60
2022-11-23T06:57:10.412Z,26.69
2022-11-23T06:58:10.406Z,26.66
2022-11-23T06:59:10.410Z,26.66
2022-11-23T07:00:10.403Z,26.63
2022-11-23T07:01:10.458Z,26.67
2022-11-23T07:02:10.404Z,26.62
2022-11-23T07:03:10.437Z,26.63
2022-11-23T07:04:10.402Z,26.63
2022-11-23T07:05:10.432Z,26.63
2022-11-23T07:06:10.406Z,26.67
2022-11-23T07:07:10.519Z,26.69
2022-11-23T07:08:10.402Z,26.67
2022-11-23T07:09:10.409Z,26.65
2022-11-23T07:10:10.402Z,26.62
2022-11-23T07:11:10.410Z,26.65
2022-11-23T07:12:10.402Z,26.60
2022-11-23T07:13:10.409Z,26.65
2022-11-23T07:14:10.400Z,26.63
2022-11-23T07:15:10.407Z,26.63
2022-11-23T07:16:10.400Z,26.66
2022-11-23T07:17:13.754Z,26.67
2022-11-23T07:18:10.400Z,26.73
2022-11-23T07:19:10.429Z,26.67
2022-11-23T07:20:10.401Z,26.65
2022-11-23T07:21:10.433Z,26.72
2022-11-23T07:22:10.398Z,26.63
2022-11-23T07:23:10.406Z,26.65
2022-11-23T07:24:10.399Z,26.67
2022-11-23T07:25:10.405Z,26.63
2022-11-23T07:26:10.398Z,26.65
2022-11-23T07:27:10.404Z,26.72
2022-11-23T07:28:10.396Z,26.66
2022-11-23T07:29:10.404Z,26.62
2022-11-23T07:30:10.396Z,26.63
2022-11-23T07:31:10.403Z,26.62
2022-11-23T07:32:10.395Z,26.67
2022-11-23T07:33:10.406Z,26.65
2022-11-23T07:34:10.396Z,26.63
2022-11-23T07:35:10.403Z,26.66
2022-11-23T07:36:10.396Z,26.62
2022-11-23T07:37:10.424Z,26.63
2022-11-23T07:38:10.395Z,26.65
2022-11-23T07:39:10.402Z,26.62
2022-11-23T07:40:10.403Z,26.58
2022-11-23T07:41:10.393Z,26.65
2022-11-23T07:42:31.547Z,26.72
2022-11-23T07:43:10.392Z,26.65
2022-11-23T07:44:10.403Z,26.65
2022-11-23T07:45:10.407Z,26.65
2022-11-23T07:46:10.402Z,26.65
2022-11-23T07:47:10.393Z,26.65
2022-11-23T07:48:10.400Z,26.66
2022-11-23T07:49:10.397Z,26.66
2022-11-23T07:50:10.402Z,26.63
2022-11-23T07:51:10.393Z,26.62
2022-11-23T07:52:10.399Z,26.60
2022-11-23T07:53:10.414Z,26.65
2022-11-23T07:54:10.398Z,26.63
2022-11-23T07:55:10.391Z,26.60
2022-11-23T07:56:10.397Z,26.60
2022-11-23T07:57:10.391Z,26.67
2022-11-23T07:58:10.397Z,26.65
2022-11-23T07:59:10.388Z,26.60
2022-11-23T08:00:10.401Z,26.63
2022-11-23T08:01:10.389Z,26.63
2022-11-23T08:02:10.460Z,26.65
2022-11-23T08:04:10.394Z,26.58
2022-11-23T08:05:14.265Z,26.63
2022-11-23T08:06:10.398Z,26.66
2022-11-23T08:07:10.498Z,26.62
2022-11-23T08:08:10.394Z,26.65
2022-11-23T08:09:10.408Z,26.66
2022-11-23T08:10:10.393Z,26.65
2022-11-23T08:11:10.386Z,26.62
2022-11-23T08:12:10.392Z,26.58
2022-11-23T08:13:10.385Z,26.63
2022-11-23T08:14:10.393Z,26.62
2022-11-23T08:15:10.383Z,26.63
2022-11-23T08:16:10.392Z,26.60
2022-11-23T08:17:10.385Z,26.60
2022-11-23T08:18:10.393Z,26.66
2022-11-23T08:19:10.393Z,26.60
2022-11-23T08:20:10.391Z,26.63
2022-11-23T08:21:10.383Z,26.63
2022-11-23T08:22:14.620Z,26.63
2022-11-23T08:23:10.381Z,26.58
2022-11-23T08:24:10.390Z,26.58
2022-11-23T08:25:10.402Z,26.58
2022-11-23T08:26:13.608Z,26.58
2022-11-23T08:27:10.381Z,26.57
2022-11-23T08:28:10.389Z,26.60
2022-11-23T08:29:10.380Z,26.69
2022-11-23T08:30:10.390Z,26.57
2022-11-23T08:31:10.385Z,26.55
2022-11-23T08:32:10.389Z,26.60
2022-11-23T08:33:10.386Z,26.63
2022-11-23T08:34:10.387Z,26.66
2022-11-23T08:35:10.378Z,26.58
2022-11-23T08:36:10.385Z,26.65
2022-11-23T08:37:10.378Z,26.58
2022-11-23T08:38:10.386Z,26.58
2022-11-23T08:39:10.377Z,26.63
2022-11-23T08:40:10.384Z,26.60
2022-11-23T08:41:10.399Z,26.63
2022-11-23T08:42:10.385Z,26.62
2022-11-23T08:43:10.376Z,26.66
2022-11-23T08:44:10.383Z,26.65
2022-11-23T08:45:10.376Z,26.65
2022-11-23T08:46:11.405Z,26.58
2022-11-23T08:47:10.375Z,26.63
2022-11-23T08:48:10.383Z,26.58
2022-11-23T08:49:10.375Z,26.66
2022-11-23T08:50:10.383Z,26.66
2022-11-23T08:51:10.376Z,26.60
2022-11-23T08:52:10.381Z,26.58
2022-11-23T08:53:10.374Z,26.66
2022-11-23T08:54:10.382Z,26.63
2022-11-23T08:55:10.372Z,26.58
2022-11-23T08:56:10.381Z,26.62
2022-11-23T08:57:10.394Z,26.62
2022-11-23T08:58:13.311Z,26.58
2022-11-23T08:59:10.375Z,26.60
2022-11-23T09:00:10.379Z,26.66
2022-11-23T09:01:10.421Z,26.62
2022-11-23T09:02:10.379Z,26.60
2022-11-23T09:03:10.370Z,26.62
2022-11-23T09:04:10.377Z,26.60
2022-11-23T09:05:10.370Z,26.58
2022-11-23T09:06:10.377Z,26.62
2022-11-23T09:07:10.422Z,26.62
2022-11-23T09:08:10.374Z,26.57
2022-11-23T09:09:10.370Z,26.60
2022-11-23T09:10:15.083Z,26.67
2022-11-23T09:11:10.372Z,26.58
2022-11-23T09:12:10.375Z,26.58
2022-11-23T09:13:10.417Z,26.65
2022-11-23T09:14:10.376Z,26.65
2022-11-23T09:15:10.369Z,26.63
2022-11-23T09:16:10.374Z,26.62
2022-11-23T09:17:10.366Z,26.63
2022-11-23T09:18:10.374Z,26.63
2022-11-23T09:19:10.388Z,26.66
2022-11-23T09:20:10.379Z,26.66
2022-11-23T09:21:10.366Z,26.57
2022-11-23T09:22:10.373Z,26.60
2022-11-23T09:23:14.028Z,26.58
2022-11-23T09:24:10.489Z,26.55
2022-11-23T09:25:10.427Z,26.58
2022-11-23T09:26:10.372Z,26.67
2022-11-23T09:27:10.367Z,26.58
2022-11-23T09:28:10.370Z,26.60
2022-11-23T09:29:10.391Z,26.63
2022-11-23T09:30:10.374Z,26.63
2022-11-23T09:31:10.364Z,26.57
2022-11-23T09:32:10.369Z,26.62
2022-11-23T09:33:10.366Z,26.62
2022-11-23T09:34:10.381Z,26.70
2022-11-23T09:35:10.361Z,26.62
2022-11-23T09:36:10.369Z,26.62
2022-11-23T09:37:10.363Z,26.66
2022-11-23T09:38:10.368Z,26.63
2022-11-23T09:39:10.362Z,26.63
2022-11-23T09:40:10.369Z,26.66
2022-11-23T09:41:10.371Z,26.62
2022-11-23T09:42:10.371Z,26.66
2022-11-23T09:43:10.365Z,26.63
2022-11-23T09:44:10.384Z,26.62
2022-11-23T09:45:10.389Z,26.69
2022-11-23T09:46:10.376Z,26.63
2022-11-23T09:47:10.357Z,26.65
2022-11-23T09:48:10.364Z,26.63
2022-11-23T09:49:10.370Z,26.65
2022-11-23T09:50:10.365Z,26.58
2022-11-23T09:51:10.372Z,26.66
2022-11-23T09:52:10.369Z,26.66
2022-11-23T09:53:10.371Z,26.65
2022-11-23T09:54:10.370Z,26.65
2022-11-23T09:55:10.363Z,26.65
2022-11-23T09:56:10.373Z,26.65
2022-11-23T09:57:10.359Z,26.63
2022-11-23T09:58:10.372Z,26.62
2022-11-23T09:59:10.355Z,26.65
2022-11-23T10:00:10.374Z,26.63
2022-11-23T10:01:10.412Z,26.62
2022-11-23T10:02:10.364Z,26.66
2022-11-23T10:03:10.356Z,26.62
2022-11-23T10:04:10.378Z,26.65
2022-11-23T10:05:10.353Z,26.69
2022-11-23T10:06:10.366Z,26.63
2022-11-23T10:07:10.401Z,26.63
2022-11-23T10:08:10.364Z,26.65
2022-11-23T10:09:10.354Z,26.69
2022-11-23T10:10:10.364Z,26.65
2022-11-23T10:11:10.359Z,26.63
2022-11-23T10:12:10.358Z,26.62
2022-11-23T10:13:10.351Z,26.63
2022-11-23T10:14:10.359Z,26.66
2022-11-23T10:15:10.350Z,26.66
2022-11-23T10:16:10.357Z,26.63
2022-11-23T10:17:10.373Z,26.63
2022-11-23T10:18:10.357Z,26.63
2022-11-23T10:19:10.348Z,26.66
2022-11-23T10:20:10.356Z,26.63
2022-11-23T10:21:10.348Z,26.63
2022-11-23T10:22:10.358Z,26.69
2022-11-23T10:23:10.348Z,26.60
2022-11-23T10:24:10.356Z,26.65
2022-11-23T10:25:10.348Z,26.63
2022-11-23T10:26:10.357Z,26.65
2022-11-23T10:27:10.347Z,26.66
2022-11-23T10:28:10.354Z,26.67
2022-11-23T10:29:10.349Z,26.62
2022-11-23T10:30:10.358Z,26.65
2022-11-23T10:31:10.348Z,26.65
2022-11-23T10:32:10.353Z,26.65
2022-11-23T10:33:10.369Z,26.67
2022-11-23T10:34:10.352Z,26.70
2022-11-23T10:35:10.344Z,26.63
2022-11-23T10:36:10.353Z,26.67
2022-11-23T10:37:10.345Z,26.66
2022-11-23T10:38:15.056Z,26.69
2022-11-23T10:39:10.344Z,26.63
2022-11-23T10:40:10.351Z,26.65
2022-11-23T10:41:10.343Z,26.75
2022-11-23T10:42:10.351Z,26.63
2022-11-23T10:43:10.342Z,26.67
2022-11-23T10:44:10.350Z,26.66
2022-11-23T10:45:10.343Z,26.67
2022-11-23T10:46:10.349Z,26.73
2022-11-23T10:47:10.342Z,26.66
2022-11-23T10:48:10.352Z,26.67
2022-11-23T10:49:10.361Z,26.65
2022-11-23T10:50:10.355Z,26.65
2022-11-23T10:51:10.342Z,26.67
2022-11-23T10:52:10.347Z,26.57
2022-11-23T10:53:10.340Z,26.70
2022-11-23T10:54:10.347Z,26.76
2022-11-23T10:55:10.341Z,26.66
2022-11-23T10:56:10.346Z,26.70
2022-11-23T10:57:10.339Z,26.65
2022-11-23T10:58:10.346Z,26.70
2022-11-23T10:59:10.339Z,26.65
2022-11-23T11:00:10.345Z,26.57
2022-11-23T11:01:10.338Z,26.70
2022-11-23T11:02:10.447Z,26.70
2022-11-23T11:03:10.337Z,26.75
2022-11-23T11:04:10.345Z,26.72
2022-11-23T11:05:10.358Z,26.72
2022-11-23T11:06:11.187Z,26.65
2022-11-23T11:07:10.381Z,26.69
2022-11-23T11:08:10.345Z,26.67
2022-11-23T11:09:13.521Z,26.70
2022-11-23T11:10:10.345Z,26.76
2022-11-23T11:11:10.336Z,26.72
2022-11-23T11:12:10.402Z,26.63
2022-11-23T11:13:10.336Z,26.65
2022-11-23T11:14:10.342Z,26.72
2022-11-23T11:15:11.631Z,26.72
2022-11-23T11:16:10.341Z,26.72
2022-11-23T11:17:10.336Z,26.75
2022-11-23T11:18:10.343Z,26.70
2022-11-23T11:19:10.332Z,26.75
2022-11-23T11:20:10.340Z,26.76
2022-11-23T11:21:10.355Z,26.75
2022-11-23T11:22:10.340Z,26.76
2022-11-23T11:23:10.332Z,26.76
2022-11-23T11:24:10.339Z,26.75
2022-11-23T11:25:10.333Z,26.75
2022-11-23T11:26:10.340Z,26.77
2022-11-23T11:27:10.331Z,26.75
2022-11-23T11:28:10.338Z,26.62
2022-11-23T11:29:10.330Z,26.73
2022-11-23T11:30:10.338Z,26.73
2022-11-23T11:31:10.329Z,26.75
2022-11-23T11:32:10.338Z,26.67
2022-11-23T11:33:10.330Z,26.81
2022-11-23T11:34:10.337Z,26.73
2022-11-23T11:35:10.328Z,26.76
2022-11-23T11:36:10.335Z,26.70
2022-11-23T11:37:10.352Z,26.70
2022-11-23T11:38:10.336Z,26.75
2022-11-23T11:39:19.133Z,26.77
2022-11-23T11:40:10.334Z,26.73
2022-11-23T11:41:10.327Z,26.73
2022-11-23T11:42:10.334Z,26.76
2022-11-23T11:43:10.330Z,26.80
2022-11-23T11:44:10.337Z,26.77
2022-11-23T11:45:10.326Z,26.82
2022-11-23T11:46:28.623Z,26.88
2022-11-23T11:47:10.326Z,26.85
2022-11-23T11:48:10.334Z,26.84
2022-11-23T11:49:10.326Z,26.81
2022-11-23T11:50:10.336Z,26.85
2022-11-23T11:51:10.324Z,26.87
2022-11-23T11:52:10.375Z,26.88
2022-11-23T11:53:10.347Z,26.85
2022-11-23T11:54:10.345Z,26.85
2022-11-23T11:55:10.325Z,26.91
2022-11-23T11:56:10.347Z,26.94
2022-11-23T11:57:10.336Z,26.95
2022-11-23T11:58:10.365Z,26.95
2022-11-23T11:59:10.334Z,26.92
2022-11-23T12:00:10.324Z,26.92
2022-11-23T12:01:10.331Z,26.89
2022-11-23T12:02:10.324Z,26.95
2022-11-23T12:03:10.385Z,27.04
2022-11-23T12:04:10.323Z,27.03
2022-11-23T12:05:10.331Z,27.10
2022-11-23T12:06:10.324Z,27.12
2022-11-23T12:07:10.399Z,27.06
2022-11-23T12:08:10.323Z,27.09
2022-11-23T12:09:10.360Z,27.10
2022-11-23T12:10:10.323Z,27.14
2022-11-23T12:11:10.336Z,27.13
2022-11-23T12:12:10.323Z,27.14
2022-11-23T12:13:10.332Z,27.22
2022-11-23T12:14:10.324Z,27.25
2022-11-23T12:15:33.294Z,27.18
2022-11-23T12:16:10.323Z,27.27
2022-11-23T12:17:32.019Z,27.24
2022-11-23T12:18:11.818Z,27.22
2022-11-23T12:19:10.331Z,27.24
2022-11-23T12:20:10.324Z,27.29
2022-11-23T12:21:10.374Z,27.29
2022-11-23T12:22:10.368Z,27.37
2022-11-23T12:23:10.334Z,27.34
2022-11-23T12:24:10.324Z,27.32
2022-11-23T12:25:10.356Z,27.28
2022-11-23T12:26:10.324Z,27.32
2022-11-23T12:27:10.332Z,27.37
2022-11-23T12:28:10.323Z,27.41
2022-11-23T12:29:10.332Z,27.39
2022-11-23T12:30:10.390Z,27.40
2022-11-23T12:31:10.332Z,27.41
2022-11-23T12:32:10.328Z,27.43
2022-11-23T12:33:10.332Z,27.43
2022-11-23T12:34:10.327Z,27.41
2022-11-23T12:35:10.334Z,27.39
2022-11-23T12:36:10.324Z,27.43
2022-11-23T12:37:10.333Z,27.39
2022-11-23T12:38:10.326Z,27.43
2022-11-23T12:39:10.333Z,27.41
2022-11-23T12:40:10.351Z,27.47
2022-11-23T12:41:10.356Z,27.50
2022-11-23T12:42:10.327Z,27.41
2022-11-23T12:43:10.332Z,27.49
2022-11-23T12:44:10.325Z,27.49
2022-11-23T12:45:10.334Z,27.39
2022-11-23T12:46:10.327Z,27.46
2022-11-23T12:47:10.334Z,27.46
2022-11-23T12:48:10.326Z,27.46
2022-11-23T12:49:10.334Z,27.51
2022-11-23T12:50:10.401Z,27.50
2022-11-23T12:51:10.337Z,27.50
2022-11-23T12:52:10.328Z,27.50
2022-11-23T12:53:10.336Z,27.54